TimeMST,TemperatureF,Dew PointF,Humidity,Sea Level PressureIn,VisibilityMPH,Wind Direction,Wind SpeedMPH,Gust SpeedMPH,PrecipitationIn,Events,Conditions,WindDirDegrees,DateUTC
12:52 AM,-9.9,-16.1,74,30.66,10.0,Calm,Calm,-,N/A,,Clear,0,2011-12-24 07:52:00
1:52 AM,-9.9,-16.1,74,30.65,10.0,Calm,Calm,-,N/A,,Clear,0,2011-12-24 08:52:00
2:52 AM,-11.9,-18.0,74,30.71,10.0,Calm,Calm,-,N/A,,Clear,0,2011-12-24 09:52:00
3:52 AM,-11.9,-18.0,74,30.73,10.0,Calm,Calm,-,N/A,,Clear,0,2011-12-24 10:52:00
4:52 AM,-11.9,-17.0,78,30.78,10.0,WSW,3.5,-,N/A,,Clear,250,2011-12-24 11:52:00
5:52 AM,-11.0,-16.1,78,30.81,10.0,Calm,Calm,-,N/A,,Clear,0,2011-12-24 12:52:00
6:52 AM,-11.0,-17.0,75,30.84,10.0,WSW,3.5,-,N/A,,Clear,240,2011-12-24 13:52:00
7:52 AM,-8.0,-14.1,75,30.88,10.0,Calm,Calm,-,N/A,,Clear,0,2011-12-24 14:52:00
8:52 AM,-0.0,-7.1,72,30.86,10.0,WNW,3.5,-,N/A,,Clear,300,2011-12-24 15:52:00
9:52 AM,7.0,-2.0,67,30.83,10.0,Calm,Calm,-,N/A,,Clear,0,2011-12-24 16:52:00
10:52 AM,14.0,1.9,59,30.77,10.0,South,4.6,-,N/A,,Clear,190,2011-12-24 17:52:00
11:52 AM,21.9,5.0,48,30.69,10.0,Calm,Calm,-,N/A,,Clear,0,2011-12-24 18:52:00
12:52 PM,28.4,6.8,40,30.37,10.0,NW,3.5,-,N/A,,Clear,310,2011-12-24 19:52:00
1:52 PM,28.9,9.0,43,30.62,10.0,WNW,5.8,-,N/A,,Clear,300,2011-12-24 20:52:00
2:52 PM,32.0,9.0,38,30.61,10.0,Calm,Calm,-,N/A,,Clear,0,2011-12-24 21:52:00
3:52 PM,30.0,10.0,43,30.64,10.0,North,4.6,-,N/A,,Clear,350,2011-12-24 22:52:00
4:52 PM,21.0,7.0,55,30.69,10.0,NW,4.6,-,N/A,,Clear,320,2011-12-24 23:52:00
5:52 PM,9.0,1.9,73,30.78,10.0,NNW,6.9,-,N/A,,Clear,330,2011-12-25 00:52:00
6:52 PM,1.4,-4.0,78,30.40,10.0,Calm,Calm,-,N/A,,Clear,0,2011-12-25 01:52:00
7:52 PM,-0.9,-7.1,75,30.86,10.0,Calm,Calm,-,N/A,,Clear,0,2011-12-25 02:52:00
8:52 PM,-4.0,-9.0,79,30.81,10.0,West,3.5,-,N/A,,Clear,280,2011-12-25 03:52:00
9:52 PM,-6.0,-11.9,75,30.79,10.0,SW,4.6,-,N/A,,Clear,230,2011-12-25 04:52:00
10:52 PM,-8.0,-13.0,79,30.78,10.0,Calm,Calm,-,N/A,,Clear,0,2011-12-25 05:52:00
11:52 PM,-4.0,-9.0,79,30.69,10.0,WSW,4.6,-,N/A,,Clear,250,2011-12-25 06:52:00